createdAt,value
2023-04-29T00:00:07.479Z,101574.53
2023-04-29T00:00:21.361Z,101582.38
2023-04-29T00:00:28.703Z,101597.09
2023-04-29T00:00:38.543Z,101578.88
2023-04-29T00:00:48.068Z,101593.63
2023-04-29T00:00:55.367Z,101570.16
2023-04-29T00:01:10.942Z,101579.72
2023-04-29T00:01:25.627Z,101593.63
2023-04-29T00:01:32.786Z,101571.03
2023-04-29T00:01:40.111Z,101578.03
2023-04-29T00:01:49.977Z,101592.75
2023-04-29T00:01:59.402Z,101594.47
2023-04-29T00:02:14.654Z,101591.88
2023-04-29T00:02:31.188Z,101593.59
2023-04-29T00:02:39.260Z,101591.03
2023-04-29T00:02:46.688Z,101591.03
2023-04-29T00:02:55.209Z,101549.22
2023-04-29T00:03:03.186Z,101591.88
2023-04-29T00:03:20.933Z,101580.63
2023-04-29T00:03:30.737Z,101593.63
2023-04-29T00:03:45.572Z,101592.75
2023-04-29T00:03:53.374Z,101585.78
2023-04-29T00:04:00.908Z,101591.88
2023-04-29T00:04:09.559Z,101593.63
2023-04-29T00:04:25.249Z,101581.47
2023-04-29T00:04:32.897Z,101574.47
2023-04-29T00:04:50.100Z,101571.84
2023-04-29T00:04:58.018Z,101585.75
2023-04-29T00:05:06.909Z,101586.66
2023-04-29T00:05:14.910Z,101587.53
2023-04-29T00:05:29.505Z,101535.34
2023-04-29T00:05:36.975Z,101575.38
2023-04-29T00:05:52.063Z,101581.50
2023-04-29T00:05:59.549Z,101597.09
2023-04-29T00:06:09.610Z,101594.56
2023-04-29T00:06:17.113Z,101597.16
2023-04-29T00:06:31.765Z,101593.69
2023-04-29T00:06:38.990Z,101592.81
2023-04-29T00:06:53.511Z,101596.28
2023-04-29T00:07:00.802Z,101597.16
2023-04-29T00:07:16.443Z,101588.47
2023-04-29T00:07:23.658Z,101596.22
2023-04-29T00:07:32.747Z,101587.50
2023-04-29T00:07:43.243Z,101588.38
2023-04-29T00:07:58.164Z,101567.50
2023-04-29T00:08:05.932Z,101586.63
2023-04-29T00:08:21.260Z,101524.03
2023-04-29T00:08:28.751Z,101540.59
2023-04-29T00:08:36.382Z,101589.25
2023-04-29T00:08:43.623Z,101580.59
2023-04-29T00:09:02.654Z,101587.53
2023-04-29T00:09:11.362Z,101582.34
2023-04-29T00:09:26.000Z,101578.81
2023-04-29T00:09:33.539Z,101594.47
2023-04-29T00:09:41.052Z,101591.91
2023-04-29T00:09:48.286Z,101570.09
2023-04-29T00:10:02.948Z,101583.19
2023-04-29T00:10:12.582Z,101567.50
2023-04-29T00:10:27.060Z,101590.16
2023-04-29T00:10:37.161Z,101597.94
2023-04-29T00:10:45.577Z,101532.75
2023-04-29T00:10:52.896Z,101593.56
2023-04-29T00:11:07.309Z,101590.97
2023-04-29T00:11:14.488Z,101558.78
2023-04-29T00:11:34.404Z,101598.81
2023-04-29T00:11:41.671Z,101599.66
2023-04-29T00:11:50.622Z,101584.06
2023-04-29T00:11:58.292Z,101581.44
2023-04-29T00:12:18.432Z,101560.53
2023-04-29T00:12:25.595Z,101595.34
2023-04-29T00:12:41.428Z,101599.66
2023-04-29T00:12:49.180Z,101582.31
2023-04-29T00:12:56.607Z,101581.44
2023-04-29T00:13:04.131Z,101602.28
2023-04-29T00:13:20.336Z,101553.63
2023-04-29T00:13:29.973Z,101599.69
2023-04-29T00:13:47.119Z,101584.91
2023-04-29T00:13:54.364Z,101599.69
2023-04-29T00:14:03.050Z,101585.75
2023-04-29T00:14:10.250Z,101592.75
2023-04-29T00:14:25.219Z,101563.13
2023-04-29T00:14:32.357Z,101590.09
2023-04-29T00:14:57.445Z,101593.56
2023-04-29T00:15:06.962Z,101585.72
2023-04-29T00:15:14.286Z,101595.34
2023-04-29T00:15:21.925Z,101588.31
2023-04-29T00:15:29.245Z,101577.00
2023-04-29T00:15:37.660Z,101596.19
2023-04-29T00:15:59.427Z,101582.31
2023-04-29T00:16:08.156Z,101563.97
2023-04-29T00:16:15.427Z,101597.84
2023-04-29T00:16:23.285Z,101587.47
2023-04-29T00:16:30.474Z,101583.91
2023-04-29T00:16:40.859Z,101590.03
2023-04-29T00:17:02.421Z,101553.47
2023-04-29T00:17:09.743Z,101600.44
2023-04-29T00:17:17.785Z,101569.16
2023-04-29T00:17:25.147Z,101596.13
2023-04-29T00:17:32.433Z,101592.69
2023-04-29T00:17:47.343Z,101580.50
2023-04-29T00:18:12.141Z,101585.69
2023-04-29T00:18:19.381Z,101575.19
2023-04-29T00:18:29.011Z,101547.41
2023-04-29T00:18:36.788Z,101593.47
2023-04-29T00:18:44.037Z,101586.50
2023-04-29T00:18:51.488Z,101582.16
2023-04-29T00:19:14.500Z,101585.69
2023-04-29T00:19:21.985Z,101588.22
2023-04-29T00:19:29.535Z,101594.41
2023-04-29T00:19:37.199Z,101601.31
2023-04-29T00:19:47.013Z,101555.28
2023-04-29T00:19:54.329Z,101598.66
2023-04-29T00:20:18.247Z,101590.00
2023-04-29T00:20:25.645Z,101596.91
2023-04-29T00:20:33.115Z,101594.34
2023-04-29T00:20:40.689Z,101570.88
2023-04-29T00:20:48.101Z,101604.69
2023-04-29T00:20:55.337Z,101596.94
2023-04-29T00:21:21.135Z,101570.00
2023-04-29T00:21:28.962Z,101590.00
2023-04-29T00:21:36.224Z,101548.28
2023-04-29T00:21:43.697Z,101597.84
2023-04-29T00:21:51.272Z,101599.56
2023-04-29T00:21:59.682Z,101594.31
2023-04-29T00:22:36.683Z,101583.91
2023-04-29T00:22:44.087Z,101604.69
2023-04-29T00:22:51.585Z,101604.75
2023-04-29T00:23:00.391Z,101603.91
2023-04-29T00:23:07.877Z,101579.56
2023-04-29T00:23:15.077Z,101598.72
2023-04-29T00:23:38.404Z,101602.13
2023-04-29T00:23:46.151Z,101607.28
2023-04-29T00:23:56.199Z,101583.91
2023-04-29T00:24:03.761Z,101587.34
2023-04-29T00:24:11.065Z,101575.25
2023-04-29T00:24:18.324Z,101547.44
2023-04-29T00:24:40.065Z,101593.41
2023-04-29T00:24:47.286Z,101571.72
2023-04-29T00:25:01.896Z,101591.75
2023-04-29T00:25:10.237Z,101596.06
2023-04-29T00:25:20.687Z,101596.94
2023-04-29T00:25:27.855Z,101604.75
2023-04-29T00:25:42.782Z,101597.88
2023-04-29T00:25:50.700Z,101583.03
2023-04-29T00:26:07.438Z,101597.78
2023-04-29T00:26:14.741Z,101581.31
2023-04-29T00:26:26.632Z,101586.56
2023-04-29T00:26:39.080Z,101590.94
2023-04-29T00:26:46.806Z,101553.59
2023-04-29T00:26:54.098Z,101581.38
2023-04-29T00:27:12.116Z,101584.84
2023-04-29T00:27:19.466Z,101583.97
2023-04-29T00:27:27.824Z,101594.34
2023-04-29T00:27:42.713Z,101598.72
2023-04-29T00:27:50.478Z,101584.81
2023-04-29T00:28:02.274Z,101593.47
2023-04-29T00:28:12.557Z,101603.91
2023-04-29T00:28:19.897Z,101598.66
2023-04-29T00:28:34.298Z,101585.69
2023-04-29T00:28:48.664Z,101589.09
2023-04-29T00:28:55.924Z,101545.69
2023-04-29T00:29:03.243Z,101595.19
2023-04-29T00:29:18.793Z,101606.47
2023-04-29T00:29:26.037Z,101603.03
2023-04-29T00:29:44.172Z,101584.78
2023-04-29T00:29:51.678Z,101578.69
2023-04-29T00:29:59.165Z,101590.03
2023-04-29T00:30:09.140Z,101606.47
2023-04-29T00:30:23.887Z,101596.00
2023-04-29T00:30:32.697Z,101596.06
2023-04-29T00:30:50.147Z,101577.78
2023-04-29T00:30:58.173Z,101599.53
2023-04-29T00:31:05.857Z,101586.50
2023-04-29T00:31:16.187Z,101597.78
2023-04-29T00:31:24.030Z,101580.44
2023-04-29T00:31:33.106Z,101603.88
2023-04-29T00:31:54.935Z,101576.06
2023-04-29T00:32:02.376Z,101598.66
2023-04-29T00:32:09.800Z,101588.22
2023-04-29T00:32:17.067Z,101596.13
2023-04-29T00:32:24.432Z,101511.75
2023-04-29T00:32:38.893Z,101597.00
2023-04-29T00:32:56.722Z,101599.66
2023-04-29T00:33:05.125Z,101554.47
2023-04-29T00:33:12.881Z,101598.81
2023-04-29T00:33:20.366Z,101586.56
2023-04-29T00:33:27.816Z,101606.56
2023-04-29T00:33:42.910Z,101597.03
2023-04-29T00:33:58.572Z,101590.94
2023-04-29T00:34:08.396Z,101553.47
2023-04-29T00:34:18.663Z,101603.97
2023-04-29T00:34:26.165Z,101601.38
2023-04-29T00:34:33.624Z,101600.44
2023-04-29T00:34:42.917Z,101601.25
2023-04-29T00:35:05.511Z,101611.75
2023-04-29T00:35:13.095Z,101599.59
2023-04-29T00:35:20.755Z,101599.53
2023-04-29T00:35:28.058Z,101601.31
2023-04-29T00:35:37.859Z,101596.94
2023-04-29T00:35:45.308Z,101590.03
2023-04-29T00:36:07.443Z,101604.84
2023-04-29T00:36:14.745Z,101590.09
2023-04-29T00:36:22.254Z,101583.13
2023-04-29T00:36:29.654Z,101602.25
2023-04-29T00:36:44.181Z,101590.09
2023-04-29T00:36:51.647Z,101602.25
2023-04-29T00:37:16.470Z,101602.25
2023-04-29T00:37:23.705Z,101586.59
2023-04-29T00:37:30.932Z,101609.19
2023-04-29T00:37:38.508Z,101590.06
2023-04-29T00:37:45.709Z,101604.84
2023-04-29T00:37:52.949Z,101592.75
2023-04-29T00:38:22.246Z,101601.41
2023-04-29T00:38:29.634Z,101602.25
2023-04-29T00:38:37.055Z,101609.19
2023-04-29T00:38:47.127Z,101610.03
2023-04-29T00:38:54.325Z,101608.34
2023-04-29T00:39:01.577Z,101603.13
2023-04-29T00:39:24.157Z,101604.00
2023-04-29T00:39:31.520Z,101607.47
2023-04-29T00:39:38.794Z,101604.84
2023-04-29T00:39:53.191Z,101609.16
2023-04-29T00:40:00.891Z,101593.56
2023-04-29T00:40:09.923Z,101600.50
2023-04-29T00:40:24.592Z,101604.84
2023-04-29T00:40:31.854Z,101593.56
2023-04-29T00:40:41.766Z,101606.56
2023-04-29T00:40:57.124Z,101590.88
2023-04-29T00:41:05.125Z,101571.78
2023-04-29T00:41:12.660Z,101590.94
2023-04-29T00:41:27.320Z,101589.16
2023-04-29T00:41:38.103Z,101600.50
2023-04-29T00:41:45.429Z,101589.16
2023-04-29T00:42:04.973Z,101609.19
2023-04-29T00:42:15.112Z,101616.94
2023-04-29T00:42:22.648Z,101617.81
2023-04-29T00:42:32.090Z,101582.25
2023-04-29T00:42:39.489Z,101591.75
2023-04-29T00:42:46.885Z,101602.16
2023-04-29T00:43:08.698Z,101605.72
2023-04-29T00:43:16.019Z,101603.91
2023-04-29T00:43:23.178Z,101614.34
2023-04-29T00:43:37.866Z,101609.16
2023-04-29T00:43:47.794Z,101610.88
2023-04-29T00:43:55.081Z,101587.47
2023-04-29T00:44:10.201Z,101616.13
2023-04-29T00:44:17.723Z,101594.34
2023-04-29T00:44:24.992Z,101581.31
2023-04-29T00:44:39.612Z,101584.91
2023-04-29T00:44:53.970Z,101588.31
2023-04-29T00:45:01.188Z,101594.41
2023-04-29T00:45:11.732Z,101615.19
2023-04-29T00:45:21.666Z,101608.28
2023-04-29T00:45:28.845Z,101607.38
2023-04-29T00:45:43.910Z,101612.63
2023-04-29T00:45:58.704Z,101618.66
2023-04-29T00:46:11.286Z,101610.88
2023-04-29T00:46:18.514Z,101588.28
2023-04-29T00:46:26.102Z,101592.63
2023-04-29T00:46:33.833Z,101602.19
2023-04-29T00:46:50.995Z,101602.25
2023-04-29T00:46:59.492Z,101601.34
2023-04-29T00:47:11.561Z,101597.94
2023-04-29T00:47:19.129Z,101587.44
2023-04-29T00:47:26.461Z,101602.25
2023-04-29T00:47:33.885Z,101613.56
2023-04-29T00:47:56.339Z,101612.69
2023-04-29T00:48:04.847Z,101610.88
2023-04-29T00:48:12.214Z,101610.88
2023-04-29T00:48:19.339Z,101608.28
2023-04-29T00:48:29.135Z,101613.53
2023-04-29T00:48:36.382Z,101608.28
2023-04-29T00:48:58.820Z,101622.94
2023-04-29T00:49:06.111Z,101564.69
2023-04-29T00:49:14.131Z,101607.28
2023-04-29T00:49:23.142Z,101611.66
2023-04-29T00:49:30.492Z,101609.84
2023-04-29T00:49:38.385Z,101611.66
2023-04-29T00:50:02.613Z,101602.06
2023-04-29T00:50:10.341Z,101603.84
2023-04-29T00:50:17.634Z,101609.00
2023-04-29T00:50:25.027Z,101601.22
2023-04-29T00:50:32.515Z,101598.56
2023-04-29T00:50:39.633Z,101619.44
2023-04-29T00:51:04.157Z,101614.28
2023-04-29T00:51:11.797Z,101610.81
2023-04-29T00:51:19.207Z,101616.88
2023-04-29T00:51:27.342Z,101612.50
2023-04-29T00:51:36.429Z,101600.38
2023-04-29T00:51:44.595Z,101608.19
2023-04-29T00:52:08.524Z,101596.84
2023-04-29T00:52:21.051Z,101616.84
2023-04-29T00:52:30.836Z,101596.84
2023-04-29T00:52:39.081Z,101572.50
2023-04-29T00:52:47.597Z,101603.81
2023-04-29T00:52:55.422Z,101597.75
2023-04-29T00:53:12.488Z,101611.66
2023-04-29T00:53:28.117Z,101565.53
2023-04-29T00:53:38.462Z,101615.13
2023-04-29T00:53:47.020Z,101542.00
2023-04-29T00:53:55.995Z,101602.97
2023-04-29T00:54:04.617Z,101576.91
2023-04-29T00:54:14.002Z,101597.75
2023-04-29T00:54:28.792Z,101599.50
2023-04-29T00:54:44.585Z,101571.63
2023-04-29T00:54:52.844Z,101616.81
2023-04-29T00:55:00.211Z,101579.50
2023-04-29T00:55:11.181Z,101612.47
2023-04-29T00:55:18.810Z,101615.13
2023-04-29T00:55:34.274Z,101613.38
2023-04-29T00:55:52.134Z,101617.72
2023-04-29T00:56:01.068Z,101615.13
2023-04-29T00:56:09.013Z,101594.31
2023-04-29T00:56:16.745Z,101618.56
2023-04-29T00:56:24.815Z,101609.00
2023-04-29T00:56:34.308Z,101626.34
2023-04-29T00:56:56.650Z,101615.13
2023-04-29T00:57:04.462Z,101615.97
2023-04-29T00:57:11.728Z,101610.78
2023-04-29T00:57:19.977Z,101612.47
2023-04-29T00:57:29.291Z,101603.75
2023-04-29T00:57:36.497Z,101607.25
2023-04-29T00:58:04.553Z,101596.81
2023-04-29T00:58:12.422Z,101559.38
2023-04-29T00:58:20.224Z,101618.53
2023-04-29T00:58:33.595Z,101580.22
2023-04-29T00:58:41.003Z,101620.22
2023-04-29T00:58:50.142Z,101601.13
2023-04-29T00:59:06.282Z,101608.09
2023-04-29T00:59:15.639Z,101609.78
2023-04-29T00:59:24.265Z,101567.19
2023-04-29T00:59:34.976Z,101575.03
2023-04-29T00:59:42.458Z,101613.31
2023-04-29T00:59:50.405Z,101618.50
2023-04-29T01:00:10.274Z,101609.78
2023-04-29T01:00:19.010Z,101608.94
2023-04-29T01:00:27.037Z,101608.13
2023-04-29T01:00:42.143Z,101615.91
2023-04-29T01:00:53.428Z,101618.56
2023-04-29T01:01:02.167Z,101602.03
2023-04-29T01:01:10.272Z,101614.25
2023-04-29T01:01:25.194Z,101614.19
2023-04-29T01:01:33.199Z,101616.75
2023-04-29T01:02:11.104Z,101621.13
2023-04-29T01:02:19.416Z,101600.28
2023-04-29T01:02:27.515Z,101601.13
2023-04-29T01:02:35.420Z,101577.63
2023-04-29T01:02:42.815Z,101610.69
2023-04-29T01:02:50.526Z,101611.56
2023-04-29T01:03:13.999Z,101594.16
2023-04-29T01:03:21.824Z,101609.78
2023-04-29T01:03:32.843Z,101616.78
2023-04-29T01:03:40.797Z,101620.22
2023-04-29T01:03:48.442Z,101612.47
2023-04-29T01:03:56.789Z,101616.84
2023-04-29T01:04:16.867Z,101612.47
2023-04-29T01:04:24.320Z,101619.41
2023-04-29T01:04:40.709Z,101608.13
2023-04-29T01:04:52.798Z,101611.56
2023-04-29T01:05:00.018Z,101624.63
2023-04-29T01:05:08.078Z,101612.47
2023-04-29T01:05:25.526Z,101613.31
2023-04-29T01:05:33.985Z,101612.47
2023-04-29T01:05:41.649Z,101558.53
2023-04-29T01:06:09.641Z,101573.28
2023-04-29T01:06:29.377Z,101596.84
2023-04-29T01:06:49.838Z,101616.81
2023-04-29T01:07:07.375Z,101625.47
2023-04-29T01:07:18.010Z,101590.69
2023-04-29T01:07:35.037Z,101617.63
2023-04-29T01:07:53.028Z,101580.25
2023-04-29T01:08:18.578Z,101623.72
2023-04-29T01:08:45.990Z,101611.50
2023-04-29T01:09:06.465Z,101621.88
2023-04-29T01:09:32.611Z,101603.72
2023-04-29T01:09:54.137Z,101615.78
2023-04-29T01:10:05.404Z,101610.53
2023-04-29T01:10:22.793Z,101615.81
2023-04-29T01:10:36.298Z,101614.88
2023-04-29T01:10:49.793Z,101620.97
2023-04-29T01:11:08.395Z,101624.34
2023-04-29T01:11:23.562Z,101574.75
2023-04-29T01:11:35.892Z,101622.59
2023-04-29T01:12:08.304Z,101602.59
2023-04-29T01:12:22.556Z,101632.13
2023-04-29T01:12:37.673Z,101626.91
2023-04-29T01:12:47.234Z,101637.41
2023-04-29T01:13:03.787Z,101612.09
2023-04-29T01:13:20.988Z,101624.28
2023-04-29T01:13:38.816Z,101593.81
2023-04-29T01:13:50.805Z,101619.09
2023-04-29T01:14:00.959Z,101638.22
2023-04-29T01:14:08.722Z,101622.53
2023-04-29T01:14:16.277Z,101626.03
2023-04-29T01:14:24.989Z,101553.84
2023-04-29T01:14:51.799Z,101610.31
2023-04-29T01:15:07.056Z,101640.72
2023-04-29T01:15:22.784Z,101632.97
2023-04-29T01:15:35.318Z,101594.66
2023-04-29T01:15:49.845Z,101601.53
2023-04-29T01:16:02.437Z,101625.09
2023-04-29T01:16:21.693Z,101628.56
2023-04-29T01:16:37.143Z,101626.84
2023-04-29T01:16:52.042Z,101637.22
2023-04-29T01:17:03.927Z,101633.75
2023-04-29T01:17:20.045Z,101631.16
2023-04-29T01:17:32.289Z,101645.03
2023-04-29T01:17:45.339Z,101637.19
2023-04-29T01:18:01.472Z,101623.31
2023-04-29T01:18:12.967Z,101644.16
2023-04-29T01:18:28.504Z,101640.66
2023-04-29T01:18:40.863Z,101637.25
2023-04-29T01:18:54.849Z,101629.41
2023-04-29T01:19:17.925Z,101607.63
2023-04-29T01:19:41.287Z,101612.00
2023-04-29T01:19:53.770Z,101642.47
2023-04-29T01:20:04.585Z,101636.34
2023-04-29T01:20:12.747Z,101587.59
2023-04-29T01:20:21.467Z,101632.00
2023-04-29T01:20:29.228Z,101644.16
2023-04-29T01:20:45.492Z,101630.28
2023-04-29T01:20:56.252Z,101624.19
2023-04-29T01:21:10.992Z,101639.03
2023-04-29T01:21:18.387Z,101634.72
2023-04-29T01:21:26.060Z,101599.94
2023-04-29T01:21:33.414Z,101643.47
2023-04-29T01:21:46.751Z,101630.31
2023-04-29T01:22:01.053Z,101652.91
2023-04-29T01:22:17.832Z,101631.16
2023-04-29T01:22:27.840Z,101646.88
2023-04-29T01:22:35.166Z,101616.41
2023-04-29T01:22:43.268Z,101645.16
2023-04-29T01:22:50.599Z,101622.56
2023-04-29T01:23:05.878Z,101645.16
2023-04-29T01:23:29.194Z,101635.69
2023-04-29T01:23:36.771Z,101620.88
2023-04-29T01:23:47.235Z,101619.97
2023-04-29T01:23:56.574Z,101646.06
2023-04-29T01:24:07.057Z,101636.47
2023-04-29T01:24:14.898Z,101643.41
2023-04-29T01:24:31.360Z,101646.06
2023-04-29T01:24:39.050Z,101637.38
2023-04-29T01:24:56.669Z,101626.09
2023-04-29T01:25:06.123Z,101643.50
2023-04-29T01:25:19.774Z,101635.63
2023-04-29T01:25:53.353Z,101635.56
2023-04-29T01:26:22.112Z,101629.44
2023-04-29T01:27:03.070Z,101645.97
2023-04-29T01:27:33.767Z,101649.44
2023-04-29T01:27:59.499Z,101611.25
2023-04-29T01:28:18.282Z,101643.34
2023-04-29T01:28:43.333Z,101646.88
2023-04-29T01:28:59.257Z,101638.13
2023-04-29T01:29:24.939Z,101620.72
2023-04-29T01:29:53.157Z,101647.75
2023-04-29T01:30:06.465Z,101624.28
2023-04-29T01:30:25.228Z,101629.53
2023-04-29T01:30:42.653Z,101636.50
2023-04-29T01:30:57.224Z,101637.47
2023-04-29T01:31:09.828Z,101636.56
2023-04-29T01:31:25.785Z,101640.03
2023-04-29T01:31:39.138Z,101643.53
2023-04-29T01:31:52.220Z,101644.44
2023-04-29T01:32:06.701Z,101631.31
2023-04-29T01:32:18.216Z,101646.09
2023-04-29T01:32:34.820Z,101646.09
2023-04-29T01:32:52.263Z,101650.31
2023-04-29T01:33:09.819Z,101644.34
2023-04-29T01:33:23.653Z,101614.69
2023-04-29T01:33:41.227Z,101646.88
2023-04-29T01:33:56.406Z,101648.59
2023-04-29T01:34:09.768Z,101634.69
2023-04-29T01:34:27.063Z,101645.97
2023-04-29T01:34:43.001Z,101635.56
2023-04-29T01:35:02.534Z,101642.47
2023-04-29T01:35:18.565Z,101652.09
2023-04-29T01:35:45.074Z,101635.59
2023-04-29T01:36:04.039Z,101648.56
2023-04-29T01:36:25.536Z,101632.00
2023-04-29T01:36:44.959Z,101644.25
2023-04-29T01:37:00.981Z,101649.53
2023-04-29T01:37:18.005Z,101646.84
2023-04-29T01:37:36.092Z,101639.81
2023-04-29T01:37:54.602Z,101635.44
2023-04-29T01:38:14.701Z,101650.25
2023-04-29T01:38:35.730Z,101636.41
2023-04-29T01:38:53.124Z,101615.47
2023-04-29T01:39:15.149Z,101653.75
2023-04-29T01:39:33.276Z,101618.97
2023-04-29T01:40:00.877Z,101594.56
2023-04-29T01:40:19.260Z,101618.91
2023-04-29T01:40:48.893Z,101653.78
2023-04-29T01:41:11.663Z,101618.91
2023-04-29T01:41:25.379Z,101660.56
2023-04-29T01:41:46.050Z,101643.25
2023-04-29T01:42:11.655Z,101644.09
2023-04-29T01:42:25.481Z,101636.28
2023-04-29T01:42:39.824Z,101633.69
2023-04-29T01:43:00.874Z,101613.66
2023-04-29T01:43:14.512Z,101643.22
2023-04-29T01:43:29.382Z,101639.72
2023-04-29T01:43:39.374Z,101656.19
2023-04-29T01:43:59.237Z,101644.00
2023-04-29T01:44:10.885Z,101651.91
2023-04-29T01:44:22.287Z,101638.84
2023-04-29T01:44:32.028Z,101650.09
2023-04-29T01:44:42.326Z,101651.94
2023-04-29T01:44:56.991Z,101647.63
2023-04-29T01:45:08.943Z,101652.72
2023-04-29T01:45:18.050Z,101634.44
2023-04-29T01:45:27.694Z,101648.41
2023-04-29T01:45:38.642Z,101622.22
2023-04-29T01:45:45.914Z,101640.53
2023-04-29T01:46:06.374Z,101646.63
2023-04-29T01:46:16.536Z,101644.88
2023-04-29T01:46:26.686Z,101657.91
2023-04-29T01:46:36.871Z,101642.28
2023-04-29T01:46:49.431Z,101655.31
2023-04-29T01:46:57.588Z,101650.94
2023-04-29T01:47:14.790Z,101660.50
2023-04-29T01:47:28.953Z,101605.75
2023-04-29T01:47:37.581Z,101655.31
2023-04-29T01:47:47.089Z,101659.63
2023-04-29T01:47:56.674Z,101652.72
2023-04-29T01:48:05.543Z,101655.31
2023-04-29T01:48:16.501Z,101643.22
2023-04-29T01:48:32.676Z,101655.28
2023-04-29T01:48:40.949Z,101663.13
2023-04-29T01:48:53.872Z,101634.41
2023-04-29T01:49:01.271Z,101637.00
2023-04-29T01:49:08.673Z,101658.84
2023-04-29T01:49:25.733Z,101647.53
2023-04-29T01:49:39.848Z,101645.72
2023-04-29T01:49:47.560Z,101606.56
2023-04-29T01:49:55.275Z,101650.06
2023-04-29T01:50:03.192Z,101647.44
2023-04-29T01:50:12.028Z,101657.81
2023-04-29T01:50:27.082Z,101661.28
2023-04-29T01:50:55.564Z,101659.50
2023-04-29T01:51:06.479Z,101643.03
2023-04-29T01:51:14.375Z,101654.28
2023-04-29T01:51:22.225Z,101651.69
2023-04-29T01:51:29.987Z,101649.97
2023-04-29T01:51:38.043Z,101658.63
2023-04-29T01:52:01.246Z,101649.97
2023-04-29T01:52:08.558Z,101637.81
2023-04-29T01:52:17.593Z,101665.59
2023-04-29T01:52:32.554Z,101661.31
2023-04-29T01:52:45.456Z,101649.94
2023-04-29T01:52:52.837Z,101658.75
2023-04-29T01:53:30.796Z,101650.03
2023-04-29T01:53:40.355Z,101653.50
2023-04-29T01:53:47.715Z,101645.69
2023-04-29T01:53:55.019Z,101657.88
2023-04-29T01:54:03.404Z,101657.88
2023-04-29T01:54:13.325Z,101655.28
2023-04-29T01:54:39.497Z,101662.22
2023-04-29T01:54:47.380Z,101654.44
2023-04-29T01:54:54.733Z,101625.69
2023-04-29T01:55:03.788Z,101662.22
2023-04-29T01:55:21.815Z,101643.81
2023-04-29T01:55:54.711Z,101640.44
2023-04-29T01:56:21.921Z,101647.44
2023-04-29T01:56:56.083Z,101645.66
2023-04-29T01:57:08.417Z,101643.06
2023-04-29T01:57:28.686Z,101641.22
2023-04-29T01:57:56.079Z,101656.91
2023-04-29T01:58:19.245Z,101656.09
2023-04-29T01:58:35.527Z,101639.53
2023-04-29T01:58:42.687Z,101640.44
2023-04-29T01:59:18.498Z,101650.91
2023-04-29T01:59:53.284Z,101650.81
2023-04-29T02:00:22.073Z,101649.19
2023-04-29T02:00:35.242Z,101650.00
2023-04-29T02:00:42.867Z,101598.63
2023-04-29T02:00:50.433Z,101648.22
2023-04-29T02:00:58.715Z,101656.94
2023-04-29T02:01:07.836Z,101653.47
2023-04-29T02:01:24.103Z,101630.00
2023-04-29T02:01:39.907Z,101643.03
2023-04-29T02:01:47.580Z,101617.84
2023-04-29T02:01:56.767Z,101633.41
2023-04-29T02:02:04.328Z,101651.66
2023-04-29T02:02:15.519Z,101658.63
2023-04-29T02:02:33.151Z,101654.28
2023-04-29T02:02:50.425Z,101614.34
2023-04-29T02:03:08.989Z,101656.16
2023-04-29T02:03:25.404Z,101656.09
2023-04-29T02:03:36.605Z,101653.47
2023-04-29T02:03:46.658Z,101641.31
2023-04-29T02:03:56.070Z,101644.75
2023-04-29T02:04:04.317Z,101600.41
2023-04-29T02:04:11.787Z,101643.03
2023-04-29T02:04:28.837Z,101654.34
2023-04-29T02:04:46.397Z,101659.50
2023-04-29T02:04:53.797Z,101653.41
2023-04-29T02:05:01.575Z,101666.41
2023-04-29T02:05:10.153Z,101667.22
2023-04-29T02:05:21.484Z,101655.13
2023-04-29T02:05:36.115Z,101647.44
2023-04-29T02:05:50.810Z,101643.81
2023-04-29T02:05:59.189Z,101644.75
2023-04-29T02:06:10.099Z,101650.00
2023-04-29T02:06:17.532Z,101631.66
2023-04-29T02:06:28.930Z,101651.66
2023-04-29T02:06:40.353Z,101643.88
2023-04-29T02:06:58.650Z,101650.88
2023-04-29T02:07:06.068Z,101655.19
2023-04-29T02:07:13.517Z,101662.13
2023-04-29T02:07:21.157Z,101656.06
2023-04-29T02:07:37.335Z,101638.66
2023-04-29T02:07:44.869Z,101650.00
2023-04-29T02:08:01.816Z,101656.09
2023-04-29T02:08:13.080Z,101650.03
2023-04-29T02:08:23.956Z,101663.03
2023-04-29T02:08:35.123Z,101635.19
2023-04-29T02:08:42.585Z,101657.81
2023-04-29T02:08:49.880Z,101631.75
2023-04-29T02:09:04.963Z,101666.53
2023-04-29T02:09:13.965Z,101642.25
2023-04-29T02:09:32.432Z,101657.03
2023-04-29T02:09:47.211Z,101656.97
2023-04-29T02:09:54.898Z,101651.84
2023-04-29T02:10:03.329Z,101659.69
2023-04-29T02:10:14.176Z,101664.91
2023-04-29T02:10:23.596Z,101664.84
2023-04-29T02:10:37.688Z,101659.63
2023-04-29T02:11:02.104Z,101644.09
2023-04-29T02:11:20.121Z,101664.91
2023-04-29T02:11:27.784Z,101646.59
2023-04-29T02:11:37.591Z,101652.72
2023-04-29T02:11:44.765Z,101665.75
2023-04-29T02:11:53.486Z,101658.84
2023-04-29T02:12:10.770Z,101649.25
2023-04-29T02:12:28.190Z,101646.69
2023-04-29T02:12:35.906Z,101664.03
2023-04-29T02:12:43.266Z,101668.41
2023-04-29T02:12:50.726Z,101652.72
2023-04-29T02:12:59.371Z,101644.78
2023-04-29T02:13:14.464Z,101644.84
2023-04-29T02:13:29.844Z,101669.13
2023-04-29T02:13:37.161Z,101655.19
2023-04-29T02:13:44.726Z,101666.50
2023-04-29T02:13:54.888Z,101668.25
2023-04-29T02:14:05.537Z,101676.03
2023-04-29T02:14:20.069Z,101658.56
2023-04-29T02:14:36.793Z,101667.31
2023-04-29T02:14:45.137Z,101646.44
2023-04-29T02:14:53.516Z,101667.28
2023-04-29T02:15:01.172Z,101666.41
2023-04-29T02:15:09.873Z,101647.34
2023-04-29T02:15:30.212Z,101680.25
2023-04-29T02:15:37.393Z,101679.38
2023-04-29T02:15:52.251Z,101670.75
2023-04-29T02:16:07.983Z,101668.06
2023-04-29T02:16:16.385Z,101677.63
2023-04-29T02:16:45.293Z,101675.97
2023-04-29T02:16:55.220Z,101668.13
2023-04-29T02:17:02.514Z,101681.16
2023-04-29T02:17:11.371Z,101651.59
2023-04-29T02:17:20.715Z,101665.56
2023-04-29T02:17:27.974Z,101666.34
2023-04-29T02:17:51.765Z,101681.09
2023-04-29T02:18:02.770Z,101668.94
2023-04-29T02:18:12.840Z,101664.53
2023-04-29T02:18:21.104Z,101663.63
2023-04-29T02:18:29.629Z,101688.09
2023-04-29T02:18:40.029Z,101621.09
2023-04-29T02:18:54.432Z,101609.69
2023-04-29T02:19:02.283Z,101628.88
2023-04-29T02:19:19.199Z,101634.06
2023-04-29T02:19:26.546Z,101658.47
2023-04-29T02:19:38.844Z,101673.28
2023-04-29T02:19:46.075Z,101685.47
2023-04-29T02:19:55.223Z,101683.75
2023-04-29T02:20:03.791Z,101660.22
2023-04-29T02:20:19.431Z,101682.84
2023-04-29T02:20:26.623Z,101684.59
2023-04-29T02:20:41.679Z,101683.75
2023-04-29T02:20:50.965Z,101675.84
2023-04-29T02:21:01.391Z,101683.69
2023-04-29T02:21:09.177Z,101674.09
2023-04-29T02:21:27.429Z,101688.94
2023-04-29T02:21:35.425Z,101686.34
2023-04-29T02:21:43.245Z,101665.47